Airfield :
LOGIN :

Register | Disclaimer

   EN    FR    IT 

 










Legend :    VFR   Marginal VFR   IFR   Intensive IFR   Very Intensive IFR
Visi :
Ceiling :
>= 8 km
>= 3000ft
5 to 8 km
1000 to 3000 ft
1500m to 5 km
500 to 1000 ft
800 to 1500m
200 to 500 ft
< 800m
< 200 ft
Symbols :   Thunderstorms  Fog  Heavy snow  Heavy precipitations  Wind > 20 kt
SIGMETs :     Misc.  Thunderstorms  Icing  Turbulence  Mountain Waves  Volcanic Ashes






- Airport Elevation : 527 ft
- IATA code : DBV


LDDU - Dubrovnik

CURRENT METAR :
  • 200630Z 03021G32KT 340V110 CAVOK 05/M05 Q1033 TEMPO 02020KT

EXPIRED METARs :
  • 200600Z 03021G31KT 320V100 CAVOK 05/M05 Q1032 TEMPO 02020KT
  • 200530Z 03023G34KT 330V080 CAVOK 05/M05 Q1032 TEMPO 02020KT
  • 200500Z 03022G32KT 300V090 CAVOK 05/M04 Q1032 NOSIG
  • 200430Z 03023G35KT 310V120 CAVOK 05/M05 Q1032 NOSIG
  • 200400Z 03024G35KT 340V090 CAVOK 05/M04 Q1031 NOSIG

TAF TAF LDDU
Valid from the 20 at 06:00 until the 21 at 06:00 UTC


200525Z 2006/2106 02018KT CAVOK TX11/2013Z TN00/2105Z
PROB30
TEMPO 2006/2008 02022G35KT
BECMG 2008/2010 24006KT
BECMG 2016/2018 02018KT
PROB30
TEMPO 2018/2100 02020G30KT



MET'MAP, your aeronautical weather chart ! - Copyright ORBIFLY December 2007 - Disclaimer

ORBIFLY MET'MAP TEAM :

Programming & Development : Alexandra Zaïnal
Concept & original design : Baudouin d'Aumeries
Assistance for programming : Marc-Olivier Méhu
Technical & hardware support : Manuel Goepfert

Contact : metmap@orbifly.com




SOURCES & CREDITS :

   NOAA